createdAt,value
2023-05-05T00:00:48.538Z,86.90
2023-05-05T00:01:48.562Z,84.27
2023-05-05T00:02:48.648Z,84.91
2023-05-05T00:03:48.551Z,83.12
2023-05-05T00:04:48.615Z,87.95
2023-05-05T00:05:48.510Z,86.16
2023-05-05T00:06:48.471Z,84.17
2023-05-05T00:07:48.469Z,87.32
2023-05-05T00:08:48.449Z,85.22
2023-05-05T00:09:48.446Z,82.81
2023-05-05T00:10:48.441Z,84.38
2023-05-05T00:11:48.554Z,86.58
2023-05-05T00:12:48.420Z,85.01
2023-05-05T00:13:48.427Z,84.69
2023-05-05T00:14:48.381Z,85.95
2023-05-05T00:15:48.378Z,84.59
2023-05-05T00:16:48.390Z,83.58
2023-05-05T00:17:48.415Z,83.01
2023-05-05T00:18:48.341Z,84.48
2023-05-05T00:19:48.339Z,84.20
2023-05-05T00:20:48.342Z,84.31
2023-05-05T00:21:48.317Z,83.26
2023-05-05T00:22:48.317Z,82.88
2023-05-05T00:23:48.343Z,82.67
2023-05-05T00:24:48.288Z,82.25
2023-05-05T00:25:48.286Z,82.04
2023-05-05T00:26:48.287Z,81.73
2023-05-05T00:27:48.260Z,81.41
2023-05-05T00:28:48.247Z,81.93
2023-05-05T00:29:48.268Z,82.29
2023-05-05T00:30:48.264Z,81.87
2023-05-05T00:31:48.218Z,81.65
2023-05-05T00:32:48.376Z,81.65
2023-05-05T00:33:48.214Z,83.27
2023-05-05T00:34:48.225Z,82.89
2023-05-05T00:35:48.966Z,84.05
2023-05-05T00:36:48.185Z,86.29
2023-05-05T00:37:48.175Z,88.02
2023-05-05T00:38:48.159Z,86.96
2023-05-05T00:39:48.159Z,86.65
2023-05-05T00:40:48.154Z,86.12
2023-05-05T00:41:48.156Z,85.60
2023-05-05T00:42:48.152Z,84.86
2023-05-05T00:43:48.111Z,84.71
2023-05-05T00:44:48.113Z,84.71
2023-05-05T00:45:48.219Z,84.92
2023-05-05T00:46:48.143Z,90.04
2023-05-05T00:47:48.135Z,91.58
2023-05-05T00:48:48.068Z,91.58
2023-05-05T00:49:48.056Z,88.21
2023-05-05T00:50:48.043Z,86.74
2023-05-05T00:51:48.042Z,88.74
2023-05-05T00:52:48.021Z,89.05
2023-05-05T00:53:48.061Z,86.95
2023-05-05T00:54:48.132Z,85.27
2023-05-05T00:55:47.993Z,84.64
2023-05-05T00:56:47.980Z,84.11
2023-05-05T00:57:47.971Z,84.64
2023-05-05T00:58:47.960Z,84.39
2023-05-05T00:59:47.998Z,86.28
2023-05-05T01:00:47.938Z,84.70
2023-05-05T01:01:47.978Z,83.44
2023-05-05T01:02:48.006Z,83.34
2023-05-05T01:03:48.036Z,83.13
2023-05-05T01:04:47.894Z,82.60
2023-05-05T01:05:47.946Z,83.76
2023-05-05T01:06:47.875Z,85.02
2023-05-05T01:07:47.877Z,84.39
2023-05-05T01:08:47.863Z,86.07
2023-05-05T01:09:47.856Z,84.49
2023-05-05T01:10:47.838Z,86.49
2023-05-05T01:11:47.875Z,84.60
2023-05-05T01:12:47.840Z,84.28
2023-05-05T01:13:47.821Z,84.28
2023-05-05T01:14:47.795Z,86.38
2023-05-05T01:15:47.807Z,86.98
2023-05-05T01:16:47.792Z,85.50
2023-05-05T01:17:47.826Z,85.50
2023-05-05T01:18:47.773Z,87.40
2023-05-05T01:19:47.763Z,86.24
2023-05-05T01:20:47.753Z,85.61
2023-05-05T01:21:47.742Z,84.67
2023-05-05T01:22:47.727Z,86.87
2023-05-05T01:23:47.747Z,88.02
2023-05-05T01:24:47.702Z,85.50
2023-05-05T01:25:47.697Z,85.30
2023-05-05T01:26:47.714Z,85.08
2023-05-05T01:27:47.692Z,85.93
2023-05-05T01:28:47.672Z,86.13
2023-05-05T01:29:47.694Z,85.40
2023-05-05T01:30:47.648Z,85.19
2023-05-05T01:31:47.673Z,84.88
2023-05-05T01:32:47.636Z,84.08
2023-05-05T01:33:47.715Z,86.91
2023-05-05T01:34:47.597Z,84.70
2023-05-05T01:35:47.626Z,84.70
2023-05-05T01:36:47.588Z,84.70
2023-05-05T01:37:47.568Z,84.39
2023-05-05T01:38:47.564Z,87.19
2023-05-05T01:39:47.562Z,85.93
2023-05-05T01:40:47.537Z,84.98
2023-05-05T01:41:47.563Z,86.35
2023-05-05T01:42:47.581Z,86.77
2023-05-05T01:43:47.516Z,86.45
2023-05-05T01:44:47.520Z,87.50
2023-05-05T01:45:47.521Z,86.77
2023-05-05T01:46:47.479Z,86.35
2023-05-05T01:47:47.634Z,87.40
2023-05-05T01:48:47.462Z,85.50
2023-05-05T01:49:47.501Z,85.08
2023-05-05T01:50:47.442Z,86.49
2023-05-05T01:51:47.440Z,86.18
2023-05-05T01:52:47.431Z,85.13
2023-05-05T01:53:47.446Z,86.80
2023-05-05T01:54:47.404Z,85.86
2023-05-05T01:55:47.405Z,85.02
2023-05-05T01:56:47.395Z,84.39
2023-05-05T01:57:47.380Z,85.65
2023-05-05T01:58:47.382Z,84.70
2023-05-05T01:59:47.533Z,85.02
2023-05-05T02:00:47.361Z,85.23
2023-05-05T02:01:47.344Z,85.65
2023-05-05T02:02:47.392Z,84.81
2023-05-05T02:03:47.319Z,85.65
2023-05-05T02:04:47.323Z,84.28
2023-05-05T02:05:47.348Z,87.65
2023-05-05T02:06:47.258Z,86.38
2023-05-05T02:07:47.288Z,85.75
2023-05-05T02:08:47.283Z,88.38
2023-05-05T02:09:47.273Z,86.91
2023-05-05T02:10:47.254Z,86.32
2023-05-05T02:11:47.307Z,85.90
2023-05-05T02:12:47.272Z,86.85
2023-05-05T02:13:47.304Z,85.48
2023-05-05T02:14:47.217Z,85.27
2023-05-05T02:15:47.183Z,84.42
2023-05-05T02:16:47.193Z,84.53
2023-05-05T02:17:47.268Z,84.53
2023-05-05T02:18:47.186Z,85.16
2023-05-05T02:19:47.133Z,84.53
2023-05-05T02:20:47.099Z,84.42
2023-05-05T02:21:47.112Z,84.74
2023-05-05T02:22:47.103Z,85.27
2023-05-05T02:23:47.102Z,86.63
2023-05-05T02:24:47.067Z,85.90
2023-05-05T02:25:47.063Z,84.84
2023-05-05T02:26:47.053Z,83.80
2023-05-05T02:27:47.044Z,84.64
2023-05-05T02:28:47.042Z,84.84
2023-05-05T02:29:47.056Z,84.74
2023-05-05T02:30:47.017Z,84.78
2023-05-05T02:31:47.101Z,86.04
2023-05-05T02:32:47.054Z,85.94
2023-05-05T02:33:46.981Z,85.62
2023-05-05T02:34:46.971Z,86.88
2023-05-05T02:35:46.999Z,87.62
2023-05-05T02:36:46.980Z,86.68
2023-05-05T02:37:46.956Z,85.94
2023-05-05T02:38:46.937Z,85.94
2023-05-05T02:39:46.937Z,85.20
2023-05-05T02:40:46.930Z,84.29
2023-05-05T02:41:46.971Z,84.92
2023-05-05T02:42:46.920Z,84.61
2023-05-05T02:43:46.897Z,84.40
2023-05-05T02:44:46.887Z,84.50
2023-05-05T02:45:46.873Z,84.82
2023-05-05T02:46:46.935Z,84.50
2023-05-05T02:47:46.957Z,84.29
2023-05-05T02:48:46.877Z,85.24
2023-05-05T02:49:46.841Z,84.71
2023-05-05T02:50:46.832Z,84.29
2023-05-05T02:51:46.818Z,84.29
2023-05-05T02:52:46.814Z,85.55
2023-05-05T02:53:46.832Z,85.97
2023-05-05T02:54:46.787Z,86.19
2023-05-05T02:55:46.776Z,85.45
2023-05-05T02:56:46.757Z,85.77
2023-05-05T02:57:46.754Z,86.82
2023-05-05T02:58:46.752Z,87.03
2023-05-05T02:59:46.762Z,86.19
2023-05-05T03:00:46.722Z,86.08
2023-05-05T03:01:46.766Z,85.03
2023-05-05T03:02:46.775Z,86.19
2023-05-05T03:03:46.844Z,88.29
2023-05-05T03:04:46.694Z,87.55
2023-05-05T03:05:46.697Z,87.24
2023-05-05T03:06:46.672Z,86.93
2023-05-05T03:07:46.661Z,87.91
2023-05-05T03:08:46.654Z,88.54
2023-05-05T03:09:46.636Z,89.07
2023-05-05T03:10:46.624Z,88.02
2023-05-05T03:11:46.654Z,86.65
2023-05-05T03:12:46.652Z,86.65
2023-05-05T03:13:46.596Z,85.91
2023-05-05T03:14:46.593Z,85.70
2023-05-05T03:15:46.588Z,85.38
2023-05-05T03:16:46.616Z,84.54
2023-05-05T03:17:46.633Z,84.44
2023-05-05T03:18:46.562Z,84.33
2023-05-05T03:19:46.544Z,84.12
2023-05-05T03:20:46.542Z,84.12
2023-05-05T03:21:46.536Z,84.01
2023-05-05T03:22:46.517Z,83.59
2023-05-05T03:23:46.547Z,83.70
2023-05-05T03:24:46.506Z,83.59
2023-05-05T03:25:46.491Z,84.23
2023-05-05T03:26:46.487Z,84.79
2023-05-05T03:27:46.481Z,84.37
2023-05-05T03:28:46.466Z,85.53
2023-05-05T03:29:46.476Z,85.31
2023-05-05T03:30:46.447Z,85.21
2023-05-05T03:31:46.478Z,85.31
2023-05-05T03:32:46.816Z,85.74
2023-05-05T03:33:46.412Z,86.30
2023-05-05T03:34:46.402Z,86.10
2023-05-05T03:35:46.409Z,85.88
2023-05-05T03:36:46.399Z,86.83
2023-05-05T03:37:46.364Z,86.94
2023-05-05T03:38:46.362Z,85.95
2023-05-05T03:39:46.351Z,87.53
2023-05-05T03:40:46.350Z,87.57
2023-05-05T03:41:46.362Z,88.69
2023-05-05T03:42:46.324Z,87.95
2023-05-05T03:43:46.303Z,87.85
2023-05-05T03:44:46.306Z,86.79
2023-05-05T03:45:46.311Z,85.95
2023-05-05T03:46:46.290Z,85.63
2023-05-05T03:47:46.308Z,85.21
2023-05-05T03:48:46.264Z,85.00
2023-05-05T03:49:46.249Z,85.00
2023-05-05T03:50:46.250Z,84.58
2023-05-05T03:51:46.244Z,85.11
2023-05-05T03:52:46.245Z,86.37
2023-05-05T03:53:46.262Z,86.90
2023-05-05T03:54:46.231Z,87.15
2023-05-05T03:55:46.209Z,89.25
2023-05-05T03:56:46.202Z,91.51
2023-05-05T03:57:46.193Z,90.88
2023-05-05T03:58:46.186Z,89.93
2023-05-05T03:59:46.193Z,91.09
2023-05-05T04:00:46.159Z,90.35
2023-05-05T04:01:46.149Z,89.09
2023-05-05T04:02:46.210Z,89.09
2023-05-05T04:03:46.229Z,88.56
2023-05-05T04:04:46.131Z,89.04
2023-05-05T04:05:46.179Z,89.04
2023-05-05T04:06:46.099Z,90.20
2023-05-05T04:07:46.238Z,89.78
2023-05-05T04:08:46.091Z,90.06
2023-05-05T04:09:46.067Z,88.48
2023-05-05T04:10:46.062Z,87.85
2023-05-05T04:11:46.075Z,87.85
2023-05-05T04:12:46.058Z,90.90
2023-05-05T04:13:46.044Z,90.97
2023-05-05T04:14:46.026Z,91.60
2023-05-05T04:15:46.036Z,92.40
2023-05-05T04:16:46.017Z,92.50
2023-05-05T04:17:46.091Z,92.04
2023-05-05T04:18:45.979Z,91.30
2023-05-05T04:19:45.977Z,91.93
2023-05-05T04:20:45.962Z,91.58
2023-05-05T04:21:45.950Z,90.94
2023-05-05T04:22:45.932Z,91.33
2023-05-05T04:23:45.958Z,90.59
2023-05-05T04:24:45.931Z,89.71
2023-05-05T04:25:45.917Z,88.87
2023-05-05T04:26:45.903Z,88.24
2023-05-05T04:27:45.891Z,88.34
2023-05-05T04:28:45.886Z,87.15
2023-05-05T04:29:45.915Z,86.62
2023-05-05T04:30:45.862Z,85.85
2023-05-05T04:31:45.914Z,86.06
2023-05-05T04:32:45.916Z,85.95
2023-05-05T04:33:45.831Z,86.27
2023-05-05T04:34:45.825Z,86.06
2023-05-05T04:35:46.168Z,86.12
2023-05-05T04:36:45.815Z,85.81
2023-05-05T04:37:46.713Z,85.60
2023-05-05T04:38:46.784Z,85.71
2023-05-05T04:39:46.682Z,86.08
2023-05-05T04:40:45.774Z,85.83
2023-05-05T04:41:45.787Z,84.12
2023-05-05T04:42:45.758Z,84.85
2023-05-05T04:43:45.747Z,83.45
2023-05-05T04:44:45.734Z,82.79
2023-05-05T04:45:45.846Z,82.54
2023-05-05T04:46:45.715Z,82.23
2023-05-05T04:47:45.782Z,81.70
2023-05-05T04:48:45.696Z,82.37
2023-05-05T04:49:45.679Z,82.58
2023-05-05T04:50:45.673Z,82.79
2023-05-05T04:51:45.665Z,82.16
2023-05-05T04:52:45.657Z,82.16
2023-05-05T04:53:45.669Z,82.06
2023-05-05T04:54:45.633Z,81.92
2023-05-05T04:55:45.638Z,81.35
2023-05-05T04:56:45.616Z,80.41
2023-05-05T04:57:45.604Z,80.31
2023-05-05T04:58:45.586Z,80.52
2023-05-05T04:59:45.612Z,80.10
2023-05-05T05:00:45.571Z,79.47
2023-05-05T05:01:45.577Z,79.05
2023-05-05T05:02:45.737Z,79.47
2023-05-05T05:03:45.685Z,78.08
2023-05-05T05:04:45.534Z,77.38
2023-05-05T05:05:45.554Z,77.03
2023-05-05T05:06:45.513Z,75.57
2023-05-05T05:07:45.498Z,75.43
2023-05-05T05:08:45.485Z,74.46
2023-05-05T05:09:45.474Z,73.72
2023-05-05T05:10:45.480Z,73.17
2023-05-05T05:11:45.491Z,72.09
2023-05-05T05:12:45.539Z,71.92
2023-05-05T05:13:45.441Z,71.27
2023-05-05T05:14:45.433Z,70.72
2023-05-05T05:15:45.417Z,69.15
2023-05-05T05:16:45.494Z,69.74
2023-05-05T05:17:45.476Z,69.09
2023-05-05T05:18:45.396Z,68.47
2023-05-05T05:19:45.397Z,67.50
2023-05-05T05:20:45.384Z,66.44
2023-05-05T05:21:45.371Z,66.72
2023-05-05T05:22:45.363Z,65.89
2023-05-05T05:23:45.395Z,66.68
2023-05-05T05:24:45.353Z,65.75
2023-05-05T05:25:45.322Z,64.92
2023-05-05T05:26:45.326Z,65.03
2023-05-05T05:27:46.795Z,63.96
2023-05-05T05:28:46.355Z,64.40
2023-05-05T05:29:45.299Z,63.16
2023-05-05T05:30:45.282Z,65.03
2023-05-05T05:31:45.299Z,65.86
2023-05-05T05:32:45.338Z,65.23
2023-05-05T05:33:45.257Z,65.72
2023-05-05T05:34:45.267Z,64.14
2023-05-05T05:35:45.225Z,63.82
2023-05-05T05:36:45.230Z,63.82
2023-05-05T05:37:45.200Z,63.41
2023-05-05T05:38:45.207Z,63.93
2023-05-05T05:39:45.180Z,64.14
2023-05-05T05:40:45.205Z,63.10
2023-05-05T05:41:45.160Z,62.89
2023-05-05T05:42:45.168Z,63.51
2023-05-05T05:43:45.132Z,61.99
2023-05-05T05:44:45.130Z,64.37
2023-05-05T05:45:45.145Z,64.79
2023-05-05T05:46:45.139Z,63.31
2023-05-05T05:47:45.128Z,63.62
2023-05-05T05:48:45.081Z,62.99
2023-05-05T05:49:45.076Z,64.14
2023-05-05T05:50:45.072Z,62.92
2023-05-05T05:51:45.051Z,62.74
2023-05-05T05:52:45.070Z,62.98
2023-05-05T05:53:45.031Z,63.92
2023-05-05T05:54:45.026Z,65.19
2023-05-05T05:55:45.014Z,64.59
2023-05-05T05:56:45.013Z,65.39
2023-05-05T05:57:45.007Z,65.91
2023-05-05T05:58:45.017Z,65.39
2023-05-05T05:59:44.998Z,64.70
2023-05-05T06:00:44.984Z,64.80
2023-05-05T06:01:44.955Z,64.70
2023-05-05T06:02:45.025Z,64.80
2023-05-05T06:03:44.972Z,66.75
2023-05-05T06:04:44.960Z,65.26
2023-05-05T06:05:44.922Z,64.02
2023-05-05T06:06:44.912Z,63.68
2023-05-05T06:07:44.910Z,64.17
2023-05-05T06:08:44.889Z,61.68
2023-05-05T06:09:44.899Z,63.34
2023-05-05T06:10:44.906Z,62.37
2023-05-05T06:11:44.855Z,62.30
2023-05-05T06:12:44.884Z,64.06
2023-05-05T06:13:44.835Z,63.02
2023-05-05T06:14:44.835Z,63.54
2023-05-05T06:15:44.826Z,61.68
2023-05-05T06:16:44.816Z,62.92
2023-05-05T06:17:44.814Z,61.68
2023-05-05T06:18:44.786Z,61.65
2023-05-05T06:19:44.764Z,61.76
2023-05-05T06:20:44.755Z,59.06
2023-05-05T06:21:44.737Z,59.47
2023-05-05T06:22:44.756Z,59.55
2023-05-05T06:23:44.725Z,59.66
2023-05-05T06:24:44.717Z,60.38
2023-05-05T06:25:44.705Z,56.65
2023-05-05T06:26:44.697Z,55.82
2023-05-05T06:27:44.697Z,57.45
2023-05-05T06:28:44.713Z,59.39
2023-05-05T06:29:44.664Z,59.70
2023-05-05T06:30:44.666Z,59.47
2023-05-05T06:31:44.660Z,54.19
2023-05-05T06:32:44.660Z,55.74
2023-05-05T06:33:44.642Z,55.12
2023-05-05T06:34:44.665Z,55.85
2023-05-05T06:35:44.604Z,55.51
2023-05-05T06:36:44.642Z,55.72
2023-05-05T06:37:44.588Z,55.69
2023-05-05T06:38:44.581Z,54.04
2023-05-05T06:39:44.572Z,54.04
2023-05-05T06:40:44.582Z,53.63
2023-05-05T06:41:44.547Z,52.93
2023-05-05T06:42:44.538Z,52.20
2023-05-05T06:43:44.528Z,54.27
2023-05-05T06:44:44.520Z,53.23
2023-05-05T06:45:44.546Z,58.56
2023-05-05T06:46:44.528Z,57.09
2023-05-05T06:47:44.609Z,57.68
2023-05-05T06:48:44.477Z,60.33
2023-05-05T06:49:44.469Z,53.40
2023-05-05T06:50:44.467Z,50.31
2023-05-05T06:51:44.441Z,50.92
2023-05-05T06:52:44.469Z,51.42
2023-05-05T06:53:44.427Z,53.27
2023-05-05T06:54:44.417Z,58.98
2023-05-05T06:55:44.399Z,52.27
2023-05-05T06:56:44.387Z,53.07
2023-05-05T06:57:44.378Z,50.09
2023-05-05T06:58:44.397Z,52.64
2023-05-05T06:59:44.359Z,50.66
2023-05-05T07:00:44.385Z,52.28
2023-05-05T07:01:44.338Z,46.62
2023-05-05T07:02:44.393Z,45.03
2023-05-05T07:03:44.351Z,46.18
2023-05-05T07:04:44.358Z,46.92
2023-05-05T07:05:44.305Z,46.69
2023-05-05T07:06:44.296Z,49.68
2023-05-05T07:07:44.276Z,47.52
2023-05-05T07:08:44.277Z,45.79
2023-05-05T07:09:44.272Z,48.44
2023-05-05T07:10:44.304Z,51.30
2023-05-05T07:11:44.230Z,52.69
2023-05-05T07:12:44.266Z,49.99
2023-05-05T07:13:44.214Z,44.64
2023-05-05T07:14:44.201Z,43.73
2023-05-05T07:15:44.218Z,49.05
2023-05-05T07:16:44.293Z,43.59
2023-05-05T07:17:44.230Z,39.94
2023-05-05T07:18:44.166Z,41.20
2023-05-05T07:19:44.270Z,41.33
2023-05-05T07:20:44.146Z,41.12
2023-05-05T07:21:44.144Z,39.59
2023-05-05T07:22:44.162Z,40.95
2023-05-05T07:23:44.121Z,38.79
2023-05-05T07:24:44.117Z,37.95
2023-05-05T07:25:44.095Z,37.35
2023-05-05T07:26:44.097Z,37.95
2023-05-05T07:27:44.509Z,37.85
2023-05-05T07:28:44.093Z,37.66
2023-05-05T07:29:44.055Z,39.10
2023-05-05T07:30:44.064Z,40.73
2023-05-05T07:31:44.062Z,37.95
2023-05-05T07:32:44.178Z,37.02
2023-05-05T07:33:44.021Z,40.19
2023-05-05T07:34:44.058Z,35.67
2023-05-05T07:35:43.997Z,40.67
2023-05-05T07:36:43.991Z,39.11
2023-05-05T07:37:43.990Z,41.33
2023-05-05T07:38:43.961Z,36.51
2023-05-05T07:39:43.954Z,37.24
2023-05-05T07:40:43.960Z,38.97
2023-05-05T07:41:43.938Z,43.44
2023-05-05T07:42:43.913Z,43.10
2023-05-05T07:43:44.644Z,35.52
2023-05-05T07:44:43.900Z,34.66
2023-05-05T07:45:43.914Z,37.74
2023-05-05T07:46:43.902Z,38.65
2023-05-05T07:47:43.959Z,35.16
2023-05-05T07:48:43.861Z,34.27
2023-05-05T07:49:43.848Z,43.01
2023-05-05T07:50:43.840Z,35.66
2023-05-05T07:51:43.843Z,39.58
2023-05-05T07:52:50.047Z,37.74
2023-05-05T07:53:44.803Z,38.81
2023-05-05T07:54:43.817Z,38.91
2023-05-05T07:55:43.788Z,40.27
2023-05-05T07:56:43.784Z,42.14
2023-05-05T07:57:43.822Z,41.34
2023-05-05T07:58:43.793Z,40.52
2023-05-05T07:59:43.755Z,45.15
2023-05-05T08:00:43.770Z,46.58
2023-05-05T08:01:43.748Z,46.53
2023-05-05T08:02:43.833Z,44.92
2023-05-05T08:03:43.792Z,40.61
2023-05-05T08:04:43.808Z,40.73
2023-05-05T08:05:43.702Z,41.14
2023-05-05T08:06:43.675Z,40.93
2023-05-05T08:07:43.668Z,43.07
2023-05-05T08:08:43.656Z,42.56
2023-05-05T08:09:43.646Z,42.35
2023-05-05T08:10:43.658Z,41.22
2023-05-05T08:11:43.646Z,37.73
2023-05-05T08:12:43.644Z,37.98
2023-05-05T08:13:43.608Z,38.84
2023-05-05T08:14:43.592Z,39.79
2023-05-05T08:15:43.613Z,40.33
2023-05-05T08:16:43.597Z,40.14
2023-05-05T08:17:43.587Z,39.72
2023-05-05T08:18:43.557Z,41.38
2023-05-05T08:19:43.549Z,39.83
2023-05-05T08:20:43.551Z,40.96
2023-05-05T08:21:43.520Z,40.86
2023-05-05T08:22:43.635Z,42.41
2023-05-05T08:23:43.505Z,40.34
2023-05-05T08:24:43.488Z,41.38
2023-05-05T08:25:43.483Z,40.43
2023-05-05T08:26:43.478Z,40.01
2023-05-05T08:27:43.478Z,39.70
2023-05-05T08:28:43.476Z,41.22
2023-05-05T08:29:43.493Z,40.58
2023-05-05T08:30:43.448Z,36.41
2023-05-05T08:31:43.474Z,38.22
2023-05-05T08:32:43.454Z,35.50
2023-05-05T08:33:43.415Z,35.28
2023-05-05T08:34:43.410Z,35.46
2023-05-05T08:35:43.404Z,33.80
2023-05-05T08:36:43.376Z,34.43
2023-05-05T08:37:43.374Z,32.71
2023-05-05T08:38:43.359Z,34.68
2023-05-05T08:39:43.350Z,34.06
2023-05-05T08:40:43.373Z,35.30
2023-05-05T08:41:43.328Z,33.89
2023-05-05T08:42:43.319Z,34.08
2023-05-05T08:43:43.312Z,37.74
2023-05-05T08:44:43.295Z,33.92
2023-05-05T08:45:43.290Z,33.49
2023-05-05T08:46:43.374Z,32.17
2023-05-05T08:47:43.601Z,33.54
2023-05-05T08:48:43.252Z,32.71
2023-05-05T08:49:43.241Z,31.59
2023-05-05T08:50:43.228Z,32.61
2023-05-05T08:51:43.220Z,32.81
2023-05-05T08:52:43.281Z,30.85
2023-05-05T08:53:43.207Z,32.10
2023-05-05T08:54:43.186Z,32.29
2023-05-05T08:55:43.170Z,30.55
2023-05-05T08:56:43.151Z,31.90
2023-05-05T08:57:43.162Z,32.79
2023-05-05T08:58:43.175Z,34.80
2023-05-05T08:59:43.126Z,34.98
2023-05-05T09:00:43.224Z,30.77
2023-05-05T09:01:43.117Z,30.86
2023-05-05T09:02:43.221Z,30.05
2023-05-05T09:03:43.651Z,31.08
2023-05-05T09:04:43.111Z,29.54
2023-05-05T09:05:43.071Z,30.36
2023-05-05T09:06:43.058Z,29.76
2023-05-05T09:07:43.038Z,31.29
2023-05-05T09:08:43.088Z,33.21
2023-05-05T09:09:43.025Z,33.26
2023-05-05T09:10:43.216Z,28.96
2023-05-05T09:11:43.008Z,27.83
2023-05-05T09:12:43.037Z,29.38
2023-05-05T09:13:42.981Z,28.19
2023-05-05T09:14:42.996Z,29.85
2023-05-05T09:15:42.984Z,30.44
2023-05-05T09:16:43.028Z,31.85
2023-05-05T09:17:42.980Z,29.69
2023-05-05T09:18:42.944Z,28.99
2023-05-05T09:19:42.933Z,31.21
2023-05-05T09:20:42.911Z,29.56
2023-05-05T09:21:42.910Z,33.43
2023-05-05T09:22:43.254Z,29.43
2023-05-05T09:23:42.894Z,28.64
2023-05-05T09:24:42.879Z,30.29
2023-05-05T09:25:42.879Z,30.61
2023-05-05T09:26:42.863Z,30.83
2023-05-05T09:27:42.914Z,31.63
2023-05-05T09:28:42.869Z,29.89
2023-05-05T09:29:42.833Z,31.03
2023-05-05T09:30:42.828Z,33.76
2023-05-05T09:31:42.807Z,28.65
2023-05-05T09:32:42.878Z,32.16
2023-05-05T09:33:42.783Z,30.00
2023-05-05T09:34:42.790Z,29.42
2023-05-05T09:35:42.772Z,31.68
2023-05-05T09:36:42.748Z,32.17
2023-05-05T09:37:42.745Z,30.55
2023-05-05T09:38:42.734Z,30.85
2023-05-05T09:39:42.727Z,33.92
2023-05-05T09:40:43.201Z,31.72
2023-05-05T09:41:42.705Z,30.10
2023-05-05T09:42:42.687Z,29.99
2023-05-05T09:43:42.690Z,30.11
2023-05-05T09:44:42.679Z,30.62
2023-05-05T09:45:42.660Z,30.51
2023-05-05T09:46:42.765Z,31.43
2023-05-05T09:47:42.675Z,30.61
2023-05-05T09:48:42.642Z,34.36
2023-05-05T09:49:42.617Z,34.94
2023-05-05T09:50:42.624Z,34.08
2023-05-05T09:51:42.598Z,32.91
2023-05-05T09:52:42.612Z,31.77
2023-05-05T09:53:42.605Z,30.73
2023-05-05T09:54:42.566Z,28.81
2023-05-05T09:55:42.564Z,30.25
2023-05-05T09:56:42.547Z,32.05
2023-05-05T09:57:42.541Z,31.10
2023-05-05T09:58:42.605Z,29.99
2023-05-05T09:59:42.513Z,30.18
2023-05-05T10:00:42.510Z,30.57
2023-05-05T10:01:42.512Z,29.87
2023-05-05T10:02:42.508Z,28.13
2023-05-05T10:03:42.478Z,29.66
2023-05-05T10:04:42.516Z,28.65
2023-05-05T10:05:42.467Z,28.21
2023-05-05T10:06:42.454Z,29.53
2023-05-05T10:07:42.439Z,31.13
2023-05-05T10:08:42.441Z,31.64
2023-05-05T10:09:42.431Z,29.19
2023-05-05T10:10:42.438Z,27.27
2023-05-05T10:11:42.427Z,28.22
2023-05-05T10:12:42.447Z,31.06
2023-05-05T10:13:42.374Z,31.95
2023-05-05T10:14:42.350Z,31.62
2023-05-05T10:15:42.363Z,28.86
2023-05-05T10:16:42.658Z,25.93
2023-05-05T10:17:50.819Z,28.59
2023-05-05T10:18:43.346Z,30.71
2023-05-05T10:19:42.308Z,29.87
2023-05-05T10:20:42.301Z,29.54
2023-05-05T10:21:42.384Z,29.02
2023-05-05T10:22:42.295Z,28.60
2023-05-05T10:23:42.270Z,25.83
2023-05-05T10:24:42.242Z,29.13
2023-05-05T10:25:42.234Z,29.94
2023-05-05T10:26:42.233Z,28.20
2023-05-05T10:27:42.232Z,30.11
2023-05-05T10:28:42.240Z,26.26
2023-05-05T10:29:42.296Z,28.72
2023-05-05T10:30:42.221Z,30.45
2023-05-05T10:31:42.189Z,29.72
2023-05-05T10:33:42.294Z,32.23
2023-05-05T10:34:42.214Z,29.26
2023-05-05T10:35:42.149Z,25.91
2023-05-05T10:36:42.129Z,30.36
2023-05-05T10:37:42.126Z,28.42
2023-05-05T10:38:42.119Z,30.94
2023-05-05T10:39:42.102Z,29.80
2023-05-05T10:40:42.118Z,29.19
2023-05-05T10:41:42.091Z,28.77
2023-05-05T10:42:42.077Z,28.96
2023-05-05T10:43:42.067Z,25.95
2023-05-05T10:44:42.058Z,27.70
2023-05-05T10:45:42.107Z,26.42
2023-05-05T10:46:42.170Z,29.06
2023-05-05T10:47:42.169Z,28.93
2023-05-05T10:48:42.055Z,28.00
2023-05-05T10:49:41.995Z,25.59
2023-05-05T10:50:41.992Z,28.26
2023-05-05T10:51:41.987Z,28.87
2023-05-05T10:52:41.991Z,30.05
2023-05-05T10:53:41.970Z,28.31
2023-05-05T10:54:41.986Z,27.86
2023-05-05T10:55:41.941Z,27.34
2023-05-05T10:56:41.942Z,26.62
2023-05-05T10:57:41.914Z,24.00
2023-05-05T10:58:58.469Z,26.50
2023-05-05T10:59:42.906Z,25.72
2023-05-05T11:00:41.891Z,28.21
2023-05-05T11:01:41.879Z,30.63
2023-05-05T11:02:42.000Z,31.71
2023-05-05T11:03:41.878Z,31.38
2023-05-05T11:04:41.886Z,30.85
2023-05-05T11:05:41.831Z,29.49
2023-05-05T11:06:41.820Z,27.94
2023-05-05T11:07:41.804Z,26.65
2023-05-05T11:08:41.799Z,27.14
2023-05-05T11:09:41.795Z,26.42
2023-05-05T11:10:41.831Z,26.91
2023-05-05T11:11:41.770Z,25.38
2023-05-05T11:12:41.783Z,25.10
2023-05-05T11:13:41.744Z,24.81
2023-05-05T11:14:41.732Z,25.04
2023-05-05T11:15:41.747Z,27.76
2023-05-05T11:16:41.771Z,25.02
2023-05-05T11:17:41.741Z,26.64
2023-05-05T11:18:41.703Z,27.53
2023-05-05T11:19:41.704Z,27.42
2023-05-05T11:20:41.768Z,27.50
2023-05-05T11:21:41.679Z,26.58
2023-05-05T11:22:41.712Z,23.46
2023-05-05T11:23:41.655Z,24.69
2023-05-05T11:24:41.678Z,23.90
2023-05-05T11:25:41.636Z,23.55
2023-05-05T11:26:41.615Z,27.31
2023-05-05T11:27:41.622Z,27.29
2023-05-05T11:28:41.776Z,26.97
2023-05-05T11:29:41.600Z,23.21
2023-05-05T11:30:41.655Z,25.37
2023-05-05T11:31:41.621Z,28.51
2023-05-05T11:32:41.592Z,27.29
2023-05-05T11:33:41.544Z,28.09
2023-05-05T11:34:41.576Z,25.04
2023-05-05T11:35:41.516Z,25.23
2023-05-05T11:36:41.515Z,25.37
2023-05-05T11:37:41.492Z,27.70
2023-05-05T11:38:41.506Z,28.39
2023-05-05T11:39:41.483Z,28.37
2023-05-05T11:40:41.499Z,25.32
2023-05-05T11:41:41.452Z,26.43
2023-05-05T11:42:41.448Z,27.33
2023-05-05T11:43:41.430Z,27.09
2023-05-05T11:44:41.434Z,25.76
2023-05-05T11:45:41.418Z,25.85
2023-05-05T11:46:41.482Z,26.34
2023-05-05T11:47:41.425Z,25.83
2023-05-05T11:48:41.386Z,25.92
2023-05-05T11:49:41.431Z,25.90
2023-05-05T11:50:41.364Z,24.18
2023-05-05T11:51:41.357Z,20.97
2023-05-05T11:52:41.380Z,23.91
2023-05-05T11:53:41.339Z,22.97
2023-05-05T11:54:41.327Z,24.48
2023-05-05T11:55:41.322Z,24.62
2023-05-05T11:56:41.312Z,27.91
2023-05-05T11:57:41.299Z,31.54
2023-05-05T11:58:41.311Z,28.97
2023-05-05T11:59:41.269Z,25.90
2023-05-05T12:00:41.277Z,25.40
2023-05-05T12:01:41.253Z,27.23
2023-05-05T12:02:41.347Z,27.51
2023-05-05T12:03:41.427Z,26.77
2023-05-05T12:04:41.272Z,25.95
2023-05-05T12:05:41.222Z,25.43
2023-05-05T12:06:41.211Z,26.35
2023-05-05T12:07:41.194Z,26.45
2023-05-05T12:08:41.183Z,27.65
2023-05-05T12:09:41.175Z,28.44
2023-05-05T12:10:41.250Z,25.89
2023-05-05T12:11:41.163Z,25.47
2023-05-05T12:12:41.178Z,25.16
2023-05-05T12:13:41.134Z,22.85
2023-05-05T12:14:41.115Z,25.18
2023-05-05T12:15:41.106Z,24.87
2023-05-05T12:16:41.278Z,25.36
2023-05-05T12:17:41.116Z,25.16
2023-05-05T12:18:41.092Z,22.97
2023-05-05T12:19:41.070Z,24.63
2023-05-05T12:20:41.066Z,28.49
2023-05-05T12:21:41.070Z,28.16
2023-05-05T12:22:41.132Z,27.03
2023-05-05T12:23:41.016Z,24.69
2023-05-05T12:24:41.023Z,26.12
2023-05-05T12:25:41.000Z,26.91
2023-05-05T12:26:40.998Z,24.09
2023-05-05T12:27:40.976Z,28.16
2023-05-05T12:28:41.002Z,27.03
2023-05-05T12:29:40.969Z,27.52
2023-05-05T12:30:40.968Z,26.29
2023-05-05T12:31:41.005Z,27.61
2023-05-05T12:32:40.961Z,26.87
2023-05-05T12:33:40.929Z,25.04
2023-05-05T12:34:40.946Z,25.63
2023-05-05T12:35:40.901Z,25.21
2023-05-05T12:36:40.908Z,24.39
2023-05-05T12:37:40.886Z,24.68
2023-05-05T12:38:40.875Z,23.97
2023-05-05T12:39:40.882Z,23.25
2023-05-05T12:40:40.945Z,24.05
2023-05-05T12:41:40.847Z,23.65
2023-05-05T12:42:40.843Z,24.07
2023-05-05T12:43:40.827Z,24.87
2023-05-05T12:44:40.824Z,25.18
2023-05-05T12:45:40.832Z,25.18
2023-05-05T12:46:40.824Z,23.97
2023-05-05T12:47:40.831Z,24.27
2023-05-05T12:48:40.775Z,21.37
2023-05-05T12:49:40.792Z,23.62
2023-05-05T12:50:40.756Z,24.54
2023-05-05T12:51:40.753Z,25.05
2023-05-05T12:52:40.787Z,26.66
2023-05-05T12:53:40.722Z,26.54